createdAt,value
2018-10-02T00:01:54.061Z,65.90
2018-10-02T00:04:21.253Z,66.40
2018-10-02T00:06:48.435Z,66.30
2018-10-02T00:09:15.613Z,66.10
2018-10-02T00:11:48.494Z,65.90
2018-10-02T00:14:22.007Z,66.00
2018-10-02T00:16:49.151Z,66.10
2018-10-02T00:19:16.327Z,66.20
2018-10-02T00:21:43.724Z,66.10
2018-10-02T00:24:10.940Z,66.60
2018-10-02T00:26:38.223Z,66.60
2018-10-02T00:29:05.395Z,66.60
2018-10-02T00:31:32.587Z,67.40
2018-10-02T00:33:59.771Z,67.40
2018-10-02T00:36:26.982Z,67.20
2018-10-02T00:38:54.155Z,67.10
2018-10-02T00:41:21.342Z,67.20
2018-10-02T00:43:48.795Z,67.20
2018-10-02T00:48:49.807Z,66.80
2018-10-02T00:51:16.992Z,66.70
2018-10-02T00:53:44.167Z,66.20
2018-10-02T00:56:11.380Z,66.30
2018-10-02T00:58:38.551Z,66.40
2018-10-02T01:01:05.992Z,66.20
2018-10-02T01:18:51.964Z,66.70
2018-10-02T01:21:19.143Z,68.20
2018-10-02T01:23:46.316Z,67.80
2018-10-02T01:26:13.482Z,68.80
2018-10-02T01:28:40.630Z,68.80
2018-10-02T01:31:08.060Z,69.10
2018-10-02T01:33:35.221Z,69.10
2018-10-02T01:36:02.375Z,69.30
2018-10-02T01:38:29.550Z,69.00
2018-10-02T01:40:56.727Z,69.40
2018-10-02T01:43:23.920Z,69.60
2018-10-02T01:45:51.071Z,68.70
2018-10-02T01:48:18.237Z,68.30
2018-10-02T01:50:52.226Z,68.10
2018-10-02T01:53:19.386Z,69.10
2018-10-02T01:55:46.583Z,69.10
2018-10-02T01:58:13.744Z,69.80
2018-10-02T02:00:40.911Z,70.20
2018-10-02T02:03:08.067Z,69.70
2018-10-02T02:05:35.236Z,69.50
2018-10-02T02:08:02.395Z,70.30
2018-10-02T02:10:36.275Z,71.00
2018-10-02T02:13:03.461Z,71.40
2018-10-02T02:15:30.631Z,71.40
2018-10-02T02:17:57.812Z,71.60
2018-10-02T02:20:24.963Z,72.30
2018-10-02T02:22:52.280Z,72.90
2018-10-02T02:25:19.455Z,72.70
2018-10-02T02:27:46.763Z,72.90
2018-10-02T02:30:13.939Z,73.60
2018-10-02T02:32:41.163Z,73.20
2018-10-02T02:35:08.347Z,73.40
2018-10-02T02:37:35.527Z,73.30
2018-10-02T02:40:02.987Z,74.10
2018-10-02T02:42:30.163Z,73.60
2018-10-02T02:44:57.328Z,73.90
2018-10-02T02:47:30.248Z,73.60
2018-10-02T02:50:03.218Z,73.80
2018-10-02T02:52:33.061Z,73.10
2018-10-02T02:55:00.576Z,72.70
2018-10-02T02:57:27.781Z,72.00
2018-10-02T02:59:54.939Z,72.90
2018-10-02T03:02:22.104Z,73.50
2018-10-02T03:04:49.276Z,73.60
2018-10-02T03:07:16.446Z,73.50
2018-10-02T03:09:43.621Z,73.80
2018-10-02T03:12:10.801Z,75.00
2018-10-02T03:14:37.956Z,74.60
2018-10-02T03:17:05.236Z,74.60
2018-10-02T03:19:32.407Z,73.90
2018-10-02T03:21:59.582Z,74.10
2018-10-02T03:24:26.731Z,74.60
2018-10-02T03:26:53.890Z,74.80
2018-10-02T03:29:21.039Z,75.30
2018-10-02T03:31:48.216Z,75.00
2018-10-02T03:34:15.393Z,74.80
2018-10-02T03:36:42.563Z,74.00
2018-10-02T03:39:09.892Z,73.90
2018-10-02T03:41:37.053Z,73.60
2018-10-02T03:44:04.234Z,73.60
2018-10-02T03:46:31.448Z,74.40
2018-10-02T03:48:58.744Z,74.30
2018-10-02T03:51:25.774Z,74.80
2018-10-02T03:56:26.965Z,75.20
2018-10-02T03:58:54.140Z,75.90
2018-10-02T04:01:21.295Z,76.20
2018-10-02T04:03:48.564Z,76.30
2018-10-02T04:06:15.723Z,76.10
2018-10-02T04:08:42.891Z,76.50
2018-10-02T04:11:10.054Z,77.30
2018-10-02T04:13:37.217Z,77.40
2018-10-02T04:16:04.368Z,77.90
2018-10-02T04:18:31.603Z,77.90
2018-10-02T04:20:58.759Z,77.70
2018-10-02T04:23:25.956Z,77.80
2018-10-02T04:25:53.129Z,77.10
2018-10-02T04:28:20.368Z,77.00
2018-10-02T04:30:47.466Z,77.50
2018-10-02T04:33:14.638Z,77.70
2018-10-02T04:35:41.803Z,78.10
2018-10-02T04:38:09.024Z,77.90
2018-10-02T04:40:36.183Z,77.00
2018-10-02T04:43:03.351Z,77.00
2018-10-02T04:45:30.520Z,77.20
2018-10-02T04:47:57.683Z,76.30
2018-10-02T04:50:25.367Z,76.60
2018-10-02T04:52:52.788Z,76.60
2018-10-02T04:55:19.963Z,77.40
2018-10-02T04:57:47.106Z,77.20
2018-10-02T05:00:14.655Z,77.80
2018-10-02T05:02:41.821Z,77.60
2018-10-02T05:05:09.000Z,78.40
2018-10-02T05:07:36.160Z,78.70
2018-10-02T05:10:03.386Z,78.60
2018-10-02T05:12:30.539Z,78.40
2018-10-02T05:14:57.735Z,77.60
2018-10-02T05:17:24.892Z,77.80
2018-10-02T05:19:52.103Z,77.90
2018-10-02T05:22:19.255Z,77.70
2018-10-02T05:24:53.374Z,77.70
2018-10-02T05:27:20.586Z,77.40
2018-10-02T05:29:47.696Z,77.40
2018-10-02T05:32:14.860Z,77.40
2018-10-02T05:34:42.031Z,77.20
2018-10-02T05:37:09.201Z,77.20
2018-10-02T05:39:36.395Z,77.20
2018-10-02T05:42:03.732Z,77.20
2018-10-02T05:44:30.904Z,77.80
2018-10-02T05:46:58.079Z,77.50
2018-10-02T05:49:25.254Z,77.30
2018-10-02T05:51:52.415Z,77.30
2018-10-02T05:54:19.565Z,77.80
2018-10-02T05:56:46.736Z,77.20
2018-10-02T05:59:14.041Z,77.40
2018-10-02T06:01:41.243Z,77.50
2018-10-02T06:04:08.407Z,77.50
2018-10-02T06:06:35.640Z,77.50
2018-10-02T06:09:04.604Z,77.50
2018-10-02T06:11:31.784Z,77.60
2018-10-02T06:13:58.937Z,78.20
2018-10-02T06:16:26.105Z,77.60
2018-10-02T06:19:00.067Z,77.60
2018-10-02T06:21:27.245Z,77.70
2018-10-02T06:23:54.410Z,77.80
2018-10-02T06:26:21.572Z,77.20
2018-10-02T06:28:48.728Z,76.90
2018-10-02T06:31:15.918Z,76.10
2018-10-02T06:33:43.075Z,76.40
2018-10-02T06:36:10.266Z,76.90
2018-10-02T06:38:37.802Z,77.30
2018-10-02T06:41:04.896Z,77.10
2018-10-02T06:43:32.067Z,76.70
2018-10-02T06:45:59.216Z,76.50
2018-10-02T06:48:26.376Z,76.10
2018-10-02T06:50:53.565Z,76.00
2018-10-02T06:53:20.745Z,75.20
2018-10-02T06:55:47.899Z,76.00
2018-10-02T06:58:15.047Z,76.60
2018-10-02T07:00:42.256Z,76.20
2018-10-02T07:03:09.412Z,76.60
2018-10-02T07:05:36.644Z,76.20
2018-10-02T07:08:03.835Z,75.60
2018-10-02T07:10:30.996Z,75.30
2018-10-02T07:12:58.167Z,76.00
2018-10-02T07:15:25.316Z,75.40
2018-10-02T07:17:52.504Z,75.40
2018-10-02T07:20:19.676Z,75.50
2018-10-02T07:22:46.840Z,75.80
2018-10-02T07:25:14.024Z,75.70
2018-10-02T07:27:41.287Z,75.70
2018-10-02T07:30:08.395Z,75.30
2018-10-02T07:32:35.636Z,75.70
2018-10-02T07:35:03.056Z,75.00
2018-10-02T07:37:30.499Z,74.30
2018-10-02T07:39:57.698Z,74.40
2018-10-02T07:42:24.946Z,73.20
2018-10-02T07:44:54.254Z,74.30
2018-10-02T07:47:21.447Z,73.90
2018-10-02T07:49:52.344Z,73.20
2018-10-02T07:52:27.159Z,71.60
2018-10-02T07:54:54.400Z,70.60
2018-10-02T07:57:21.589Z,71.20
2018-10-02T07:59:48.786Z,70.80
2018-10-02T08:02:16.076Z,70.10
2018-10-02T08:04:43.898Z,70.10
2018-10-02T08:07:10.999Z,69.90
2018-10-02T08:09:38.164Z,70.60
2018-10-02T08:12:05.415Z,69.50
2018-10-02T08:14:32.556Z,69.30
2018-10-02T08:16:59.715Z,69.30
2018-10-02T08:19:26.920Z,69.80
2018-10-02T08:22:00.804Z,68.20
2018-10-02T08:24:28.090Z,68.30
2018-10-02T08:26:55.324Z,68.90
2018-10-02T08:29:22.471Z,68.30
2018-10-02T08:31:49.668Z,69.50
2018-10-02T08:34:16.828Z,67.00
2018-10-02T08:36:44.083Z,67.30
2018-10-02T08:39:11.595Z,67.50
2018-10-02T08:41:39.302Z,67.60
2018-10-02T08:44:06.452Z,67.70
2018-10-02T08:46:40.345Z,68.90
2018-10-02T08:49:07.580Z,68.90
2018-10-02T08:51:34.754Z,70.00
2018-10-02T08:54:01.975Z,70.00
2018-10-02T08:56:29.128Z,70.60
2018-10-02T08:58:56.335Z,70.40
2018-10-02T09:01:23.512Z,70.80
2018-10-02T09:03:50.784Z,70.80
2018-10-02T09:06:17.960Z,70.90
2018-10-02T09:08:45.235Z,72.60
2018-10-02T09:11:12.409Z,74.20
2018-10-02T09:13:39.687Z,74.10
2018-10-02T09:16:06.954Z,73.30
2018-10-02T09:18:34.047Z,73.80
2018-10-02T09:21:01.236Z,75.40
2018-10-02T09:23:28.416Z,75.70
2018-10-02T09:25:55.576Z,76.50
2018-10-02T09:28:22.840Z,77.30
2018-10-02T09:30:55.853Z,76.30
2018-10-02T09:33:28.729Z,77.40
2018-10-02T09:36:01.804Z,76.50
2018-10-02T09:38:34.891Z,77.50
2018-10-02T09:41:07.881Z,75.90
2018-10-02T09:43:38.814Z,76.80
2018-10-02T09:46:05.887Z,78.10
2018-10-02T09:48:33.052Z,75.70
2018-10-02T09:51:01.315Z,76.50
2018-10-02T09:53:35.280Z,73.50
2018-10-02T09:56:02.528Z,72.70
2018-10-02T09:58:29.703Z,73.40
2018-10-02T10:01:09.528Z,74.60
2018-10-02T10:03:37.812Z,73.40
2018-10-02T10:06:05.384Z,74.20
2018-10-02T10:08:32.554Z,72.80
2018-10-02T10:10:59.722Z,72.00
2018-10-02T10:13:27.001Z,72.90
2018-10-02T10:15:54.184Z,73.60
2018-10-02T10:18:21.445Z,74.20
2018-10-02T10:20:48.619Z,73.70
2018-10-02T10:23:15.848Z,73.10
2018-10-02T10:25:43.019Z,73.30
2018-10-02T10:28:10.311Z,73.90
2018-10-02T10:30:37.482Z,72.70
2018-10-02T10:33:04.758Z,72.80
2018-10-02T10:35:32.003Z,72.50
2018-10-02T10:37:59.166Z,72.70
2018-10-02T10:40:26.408Z,73.70
2018-10-02T10:42:53.523Z,71.10
2018-10-02T10:45:20.687Z,70.90
2018-10-02T10:47:47.932Z,71.20
2018-10-02T10:50:15.166Z,69.80
2018-10-02T10:52:42.428Z,71.20
2018-10-02T10:55:23.999Z,69.20
2018-10-02T10:57:51.572Z,68.70
2018-10-02T11:00:19.324Z,68.70
2018-10-02T11:02:46.806Z,69.20
2018-10-02T11:05:14.040Z,69.60
2018-10-02T11:07:41.459Z,70.50
2018-10-02T11:10:08.671Z,71.00
2018-10-02T11:12:35.831Z,71.10
2018-10-02T11:15:03.536Z,71.30
2018-10-02T11:17:30.687Z,71.00
2018-10-02T11:19:58.109Z,71.20
2018-10-02T11:22:25.276Z,71.70
2018-10-02T11:24:52.441Z,71.40
2018-10-02T11:27:19.604Z,72.00
2018-10-02T11:29:46.828Z,73.10
2018-10-02T11:32:13.939Z,72.00
2018-10-02T11:34:41.168Z,72.00
2018-10-02T11:37:08.652Z,73.20
2018-10-02T11:39:35.837Z,72.70
2018-10-02T11:42:03.048Z,72.10
2018-10-02T11:44:30.282Z,72.70
2018-10-02T11:46:57.400Z,72.40
2018-10-02T11:49:24.724Z,72.90
2018-10-02T11:51:51.774Z,72.60
2018-10-02T11:54:18.936Z,73.10
2018-10-02T11:56:46.103Z,74.20
2018-10-02T11:59:13.316Z,74.40
2018-10-02T12:01:40.502Z,75.60
2018-10-02T12:04:07.796Z,75.60
2018-10-02T12:06:34.974Z,75.30
2018-10-02T12:09:02.374Z,74.80
2018-10-02T12:11:29.487Z,74.20
2018-10-02T12:13:56.743Z,73.50
2018-10-02T12:16:23.854Z,74.20
2018-10-02T12:18:57.830Z,74.00
2018-10-02T12:21:24.983Z,73.00
2018-10-02T12:23:52.583Z,71.60
2018-10-02T12:26:19.780Z,72.10
2018-10-02T12:28:47.193Z,72.90
2018-10-02T12:31:14.511Z,72.90
2018-10-02T12:33:41.696Z,73.10
2018-10-02T12:36:08.872Z,73.10
2018-10-02T12:38:36.097Z,72.70
2018-10-02T12:41:03.213Z,73.30
2018-10-02T12:43:30.386Z,75.10
2018-10-02T12:45:57.564Z,75.80
2018-10-02T12:48:24.766Z,75.30
2018-10-02T12:50:51.957Z,76.30
2018-10-02T12:53:19.160Z,76.30
2018-10-02T12:55:46.336Z,78.10
2018-10-02T12:58:13.499Z,77.60
2018-10-02T13:00:40.650Z,78.00
2018-10-02T13:03:07.939Z,78.20
2018-10-02T13:05:37.802Z,79.10
2018-10-02T13:08:04.965Z,78.90
2018-10-02T13:10:32.132Z,80.00
2018-10-02T13:12:59.336Z,82.30
2018-10-02T13:15:26.454Z,82.20
2018-10-02T13:17:53.627Z,82.40
2018-10-02T13:20:20.796Z,82.90
2018-10-02T13:22:47.968Z,83.00
2018-10-02T13:25:16.220Z,83.40
2018-10-02T13:27:43.319Z,82.80
2018-10-02T13:30:10.564Z,83.60
2018-10-02T13:32:37.707Z,84.10
2018-10-02T13:35:05.288Z,84.30
2018-10-02T13:37:32.489Z,82.80
2018-10-02T13:39:59.670Z,82.90
2018-10-02T13:42:26.824Z,81.70
2018-10-02T13:44:54.115Z,82.00
2018-10-02T13:47:21.280Z,82.10
2018-10-02T13:49:48.482Z,82.20
2018-10-02T13:52:15.635Z,82.10
2018-10-02T13:54:42.820Z,80.80
2018-10-02T13:57:10.027Z,81.50
2018-10-02T13:59:37.196Z,80.60
2018-10-02T14:02:04.383Z,80.90
2018-10-02T14:04:31.599Z,81.20
2018-10-02T14:06:58.743Z,80.70
2018-10-02T14:09:26.028Z,80.50
2018-10-02T14:11:53.199Z,80.00
2018-10-02T14:14:20.369Z,80.60
2018-10-02T14:16:47.533Z,79.70
2018-10-02T14:19:14.708Z,78.80
2018-10-02T14:21:41.994Z,79.50
2018-10-02T14:24:09.104Z,79.20
2018-10-02T14:26:36.260Z,79.20
2018-10-02T14:29:03.448Z,78.60
2018-10-02T14:31:30.595Z,77.50
2018-10-02T14:33:57.759Z,76.90
2018-10-02T14:36:24.963Z,77.20
2018-10-02T14:38:52.208Z,77.50
2018-10-02T14:41:19.467Z,77.70
2018-10-02T14:43:46.696Z,77.90
2018-10-02T14:46:13.858Z,77.40
2018-10-02T14:48:41.027Z,77.70
2018-10-02T14:51:08.193Z,77.60
2018-10-02T14:53:35.415Z,77.10
2018-10-02T14:56:02.583Z,77.10
2018-10-02T14:58:29.736Z,77.10
2018-10-02T15:00:57.019Z,77.40
2018-10-02T15:03:24.167Z,77.20
2018-10-02T15:05:51.332Z,77.00
2018-10-02T15:08:18.480Z,76.30
2018-10-02T15:10:45.654Z,77.10
2018-10-02T15:13:13.207Z,77.80
2018-10-02T15:15:40.379Z,78.00
2018-10-02T15:18:07.736Z,77.90
2018-10-02T15:20:34.824Z,78.20
2018-10-02T15:23:02.036Z,77.70
2018-10-02T15:25:29.224Z,76.70
2018-10-02T15:27:56.457Z,76.40
2018-10-02T15:30:23.614Z,76.90
2018-10-02T15:32:50.758Z,76.60
2018-10-02T15:35:17.916Z,77.30
2018-10-02T15:37:45.190Z,77.30
2018-10-02T15:40:12.391Z,77.70
2018-10-02T15:42:39.557Z,77.90
2018-10-02T15:45:06.725Z,78.20
2018-10-02T15:47:33.883Z,78.10
2018-10-02T15:50:01.638Z,76.60
2018-10-02T15:52:28.721Z,76.70
2018-10-02T15:54:55.879Z,77.40
2018-10-02T15:57:23.028Z,77.50
2018-10-02T15:59:56.951Z,78.40
2018-10-02T16:02:24.135Z,77.00
2018-10-02T16:04:51.311Z,76.40
2018-10-02T16:07:18.470Z,76.20
2018-10-02T16:09:45.623Z,77.40
2018-10-02T16:12:12.770Z,76.80
2018-10-02T16:14:39.964Z,76.40
2018-10-02T16:17:07.127Z,76.50
2018-10-02T16:19:34.375Z,76.50
2018-10-02T16:22:01.684Z,76.40
2018-10-02T16:24:28.876Z,75.80
2018-10-02T16:26:56.036Z,76.00
2018-10-02T16:29:23.204Z,76.00
2018-10-02T16:31:50.438Z,76.50
2018-10-02T16:34:17.763Z,76.80
2018-10-02T16:36:44.955Z,76.20
2018-10-02T16:39:12.208Z,76.90
2018-10-02T16:41:39.535Z,76.80
2018-10-02T16:44:06.715Z,77.20
2018-10-02T16:46:33.892Z,77.60
2018-10-02T16:49:01.084Z,77.80
2018-10-02T16:51:28.276Z,78.40
2018-10-02T16:53:55.496Z,78.20
2018-10-02T16:56:22.737Z,78.00
2018-10-02T16:58:49.978Z,77.60
2018-10-02T17:01:17.256Z,78.10
2018-10-02T17:03:44.415Z,78.70
2018-10-02T17:06:11.660Z,78.50
2018-10-02T17:08:38.895Z,78.60
2018-10-02T17:11:06.203Z,78.60
2018-10-02T17:13:33.356Z,78.70
2018-10-02T17:16:00.540Z,78.40
2018-10-02T17:18:27.705Z,79.30
2018-10-02T17:20:54.877Z,79.20
2018-10-02T17:23:22.068Z,79.10
2018-10-02T17:25:49.232Z,79.00
2018-10-02T17:28:16.605Z,79.10
2018-10-02T17:30:43.883Z,79.50
2018-10-02T17:33:11.039Z,79.40
2018-10-02T17:35:38.352Z,80.00
2018-10-02T17:38:05.578Z,80.10
2018-10-02T17:40:32.740Z,80.10
2018-10-02T17:45:33.848Z,80.80
2018-10-02T17:48:01.024Z,80.90
2018-10-02T17:50:28.217Z,81.30
2018-10-02T17:52:55.492Z,81.50
2018-10-02T17:55:22.781Z,81.10
2018-10-02T17:57:49.935Z,81.30
2018-10-02T18:00:17.179Z,81.40
2018-10-02T18:02:44.324Z,81.90
2018-10-02T18:05:11.483Z,81.70
2018-10-02T18:07:38.732Z,81.80
2018-10-02T18:10:05.892Z,82.10
2018-10-02T18:12:33.111Z,82.00
2018-10-02T18:15:00.342Z,82.40
2018-10-02T18:17:27.503Z,82.50
2018-10-02T18:19:54.683Z,83.10
2018-10-02T18:22:21.920Z,83.00
2018-10-02T18:24:49.071Z,83.10
2018-10-02T18:27:23.175Z,83.70
2018-10-02T18:29:50.311Z,84.30
2018-10-02T18:32:17.480Z,84.50
2018-10-02T18:34:44.733Z,84.00
2018-10-02T18:37:11.981Z,84.30
2018-10-02T18:39:39.128Z,84.30
2018-10-02T18:42:06.318Z,84.60
2018-10-02T18:44:33.458Z,84.60
2018-10-02T18:47:00.703Z,84.80
2018-10-02T18:49:27.888Z,84.50
2018-10-02T18:51:55.164Z,84.70
2018-10-02T18:54:22.327Z,85.20
2018-10-02T18:56:49.516Z,85.10
2018-10-02T18:59:17.233Z,85.70
2018-10-02T19:01:45.268Z,85.30
2018-10-02T19:04:12.978Z,84.90
2018-10-02T19:06:40.149Z,85.30
2018-10-02T19:09:11.885Z,85.30
2018-10-02T19:11:44.814Z,85.80
2018-10-02T19:14:11.988Z,85.70
2018-10-02T19:16:39.180Z,86.30
2018-10-02T19:19:10.944Z,86.20
2018-10-02T19:21:38.109Z,86.20
2018-10-02T19:24:05.264Z,86.40
2018-10-02T19:26:32.431Z,87.20
2018-10-02T19:29:06.371Z,87.70
2018-10-02T19:31:39.328Z,88.00
2018-10-02T19:34:06.528Z,87.50
2018-10-02T19:36:33.716Z,87.90
2018-10-02T19:39:05.012Z,88.10
2018-10-02T19:41:32.188Z,88.30
2018-10-02T19:43:59.356Z,87.90
2018-10-02T19:46:31.127Z,88.20
2018-10-02T19:48:58.288Z,88.90
2018-10-02T19:51:31.303Z,89.00
2018-10-02T19:53:58.475Z,88.90
2018-10-02T19:56:25.652Z,88.50
2018-10-02T19:58:52.803Z,88.70
2018-10-02T20:01:19.942Z,88.50
2018-10-02T20:03:47.241Z,87.90
2018-10-02T20:06:14.416Z,88.00
2018-10-02T20:08:41.580Z,88.30
2018-10-02T20:11:08.755Z,88.30
2018-10-02T20:13:36.067Z,89.00
2018-10-02T20:16:03.075Z,90.20
2018-10-02T20:18:30.235Z,90.50
2018-10-02T20:20:57.449Z,90.50
2018-10-02T20:23:24.803Z,90.20
2018-10-02T20:25:51.951Z,90.40
2018-10-02T20:28:19.306Z,90.40
2018-10-02T20:30:46.471Z,90.40
2018-10-02T20:33:13.647Z,90.50
2018-10-02T20:35:40.794Z,91.20
2018-10-02T20:38:07.991Z,90.80
2018-10-02T20:40:35.184Z,90.60
2018-10-02T20:43:02.416Z,90.80
2018-10-02T20:45:29.575Z,90.50
2018-10-02T20:47:56.921Z,90.70
2018-10-02T20:50:24.203Z,90.70
2018-10-02T20:52:51.532Z,90.90
2018-10-02T20:55:18.693Z,91.20
2018-10-02T20:57:46.019Z,91.30
2018-10-02T21:00:14.624Z,91.50
2018-10-02T21:02:42.428Z,91.50
2018-10-02T21:05:09.842Z,91.60
2018-10-02T21:07:37.020Z,91.60
2018-10-02T21:10:04.335Z,91.30
2018-10-02T21:12:31.508Z,91.70
2018-10-02T21:14:58.692Z,91.60
2018-10-02T21:17:25.960Z,91.80
2018-10-02T21:19:53.218Z,91.90
2018-10-02T21:22:20.312Z,91.90
2018-10-02T21:24:47.584Z,91.90
2018-10-02T21:27:14.745Z,91.50
2018-10-02T21:29:41.964Z,91.90
2018-10-02T21:32:09.122Z,92.00
2018-10-02T21:34:36.375Z,91.50
2018-10-02T21:37:03.541Z,92.10
2018-10-02T21:39:30.762Z,91.60
2018-10-02T21:41:57.930Z,91.90
2018-10-02T21:44:25.084Z,91.80
2018-10-02T21:46:52.234Z,91.90
2018-10-02T21:49:19.405Z,91.80
2018-10-02T21:51:46.559Z,91.80
2018-10-02T21:54:13.716Z,91.90
2018-10-02T21:56:40.877Z,92.00
2018-10-02T21:59:08.057Z,91.90
2018-10-02T22:01:35.221Z,91.80
2018-10-02T22:04:02.390Z,92.00
2018-10-02T22:06:29.548Z,92.20
2018-10-02T22:08:56.719Z,92.40
2018-10-02T22:11:23.862Z,92.60
2018-10-02T22:13:51.023Z,92.40
2018-10-02T22:16:18.191Z,92.50
2018-10-02T22:18:46.938Z,92.40
2018-10-02T22:21:14.157Z,92.70
2018-10-02T22:23:41.332Z,92.80
2018-10-02T22:26:08.491Z,92.60
2018-10-02T22:28:35.664Z,92.90
2018-10-02T22:31:02.823Z,93.20
2018-10-02T22:33:30.002Z,93.50
2018-10-02T22:35:57.151Z,93.50
2018-10-02T22:38:24.335Z,93.30
2018-10-02T22:40:51.496Z,93.50
2018-10-02T22:43:18.685Z,93.70
2018-10-02T22:45:45.828Z,93.60
2018-10-02T22:48:12.997Z,93.70
2018-10-02T22:50:40.199Z,93.50
2018-10-02T22:53:07.385Z,93.60
2018-10-02T22:55:34.532Z,93.80
2018-10-02T22:58:01.699Z,93.60
2018-10-02T23:00:28.867Z,93.40
2018-10-02T23:02:56.016Z,93.60
2018-10-02T23:05:23.232Z,93.30
2018-10-02T23:07:50.379Z,93.40
2018-10-02T23:10:17.579Z,93.50
2018-10-02T23:12:44.784Z,93.40
2018-10-02T23:15:11.968Z,93.50
2018-10-02T23:17:39.131Z,93.40
2018-10-02T23:20:06.431Z,93.20
2018-10-02T23:22:33.577Z,93.10
2018-10-02T23:25:00.729Z,93.30
2018-10-02T23:27:27.891Z,93.60
2018-10-02T23:29:55.100Z,93.20
2018-10-02T23:32:22.300Z,93.30
2018-10-02T23:34:49.464Z,93.60
2018-10-02T23:37:16.673Z,93.50
2018-10-02T23:39:43.839Z,93.50
2018-10-02T23:42:10.992Z,93.70
2018-10-02T23:44:38.199Z,93.70
2018-10-02T23:47:05.377Z,94.10
2018-10-02T23:49:32.576Z,94.00
2018-10-02T23:51:59.732Z,94.10
2018-10-02T23:54:26.921Z,94.10
2018-10-02T23:56:54.091Z,93.90
2018-10-02T23:59:21.256Z,94.10
